sensor_id;sensor_type;location;lat;lon;timestamp;temperature;humidity
41557;DHT22;27720;51.992;5.890;2022-07-06T00:00:36;18.10;65.80
41557;DHT22;27720;51.992;5.890;2022-07-06T00:03:01;18.10;65.90
41557;DHT22;27720;51.992;5.890;2022-07-06T00:05:27;18.00;65.90
41557;DHT22;27720;51.992;5.890;2022-07-06T00:07:53;18.00;66.10
41557;DHT22;27720;51.992;5.890;2022-07-06T00:10:19;18.00;66.30
41557;DHT22;27720;51.992;5.890;2022-07-06T00:12:44;18.00;66.40
41557;DHT22;27720;51.992;5.890;2022-07-06T00:15:10;17.90;66.40
41557;DHT22;27720;51.992;5.890;2022-07-06T00:17:36;18.00;66.50
41557;DHT22;27720;51.992;5.890;2022-07-06T00:20:02;18.00;66.50
41557;DHT22;27720;51.992;5.890;2022-07-06T00:22:28;18.00;66.60
41557;DHT22;27720;51.992;5.890;2022-07-06T00:24:53;17.90;66.70
41557;DHT22;27720;51.992;5.890;2022-07-06T00:27:19;17.90;66.70
41557;DHT22;27720;51.992;5.890;2022-07-06T00:29:45;17.80;66.90
41557;DHT22;27720;51.992;5.890;2022-07-06T00:32:11;17.80;67.10
41557;DHT22;27720;51.992;5.890;2022-07-06T00:34:37;17.70;67.30
41557;DHT22;27720;51.992;5.890;2022-07-06T00:37:06;17.70;67.40
41557;DHT22;27720;51.992;5.890;2022-07-06T00:39:33;17.70;67.60
41557;DHT22;27720;51.992;5.890;2022-07-06T00:41:59;17.60;67.60
41557;DHT22;27720;51.992;5.890;2022-07-06T00:44:24;17.60;67.80
41557;DHT22;27720;51.992;5.890;2022-07-06T00:46:51;17.60;67.90
41557;DHT22;27720;51.992;5.890;2022-07-06T00:49:17;17.60;68.10
41557;DHT22;27720;51.992;5.890;2022-07-06T00:52:02;17.50;68.20
41557;DHT22;27720;51.992;5.890;2022-07-06T00:54:30;17.50;68.40
41557;DHT22;27720;51.992;5.890;2022-07-06T00:56:57;17.50;68.60
41557;DHT22;27720;51.992;5.890;2022-07-06T00:59:23;17.40;68.80
41557;DHT22;27720;51.992;5.890;2022-07-06T01:01:50;17.40;68.90
41557;DHT22;27720;51.992;5.890;2022-07-06T01:04:16;17.30;69.00
41557;DHT22;27720;51.992;5.890;2022-07-06T01:06:45;17.30;69.10
41557;DHT22;27720;51.992;5.890;2022-07-06T01:09:11;17.30;69.20
41557;DHT22;27720;51.992;5.890;2022-07-06T01:11:37;17.30;69.30
41557;DHT22;27720;51.992;5.890;2022-07-06T01:14:03;17.30;69.40
41557;DHT22;27720;51.992;5.890;2022-07-06T01:16:29;17.30;69.40
41557;DHT22;27720;51.992;5.890;2022-07-06T01:18:55;17.20;69.50
41557;DHT22;27720;51.992;5.890;2022-07-06T01:21:21;17.20;69.70
41557;DHT22;27720;51.992;5.890;2022-07-06T01:23:47;17.20;69.80
41557;DHT22;27720;51.992;5.890;2022-07-06T01:26:18;17.10;69.90
41557;DHT22;27720;51.992;5.890;2022-07-06T01:28:46;17.10;70.10
41557;DHT22;27720;51.992;5.890;2022-07-06T01:31:21;17.10;70.20
41557;DHT22;27720;51.992;5.890;2022-07-06T01:33:48;17.10;70.30
41557;DHT22;27720;51.992;5.890;2022-07-06T01:36:15;17.10;70.30
41557;DHT22;27720;51.992;5.890;2022-07-06T01:38:51;17.10;70.30
41557;DHT22;27720;51.992;5.890;2022-07-06T01:41:18;17.10;70.30
41557;DHT22;27720;51.992;5.890;2022-07-06T01:43:44;17.10;70.30
41557;DHT22;27720;51.992;5.890;2022-07-06T01:46:10;17.10;70.30
41557;DHT22;27720;51.992;5.890;2022-07-06T01:48:37;17.10;70.50
41557;DHT22;27720;51.992;5.890;2022-07-06T01:51:04;17.00;70.50
41557;DHT22;27720;51.992;5.890;2022-07-06T01:53:32;17.00;70.60
41557;DHT22;27720;51.992;5.890;2022-07-06T01:55:58;17.00;71.30
41557;DHT22;27720;51.992;5.890;2022-07-06T01:58:25;17.00;70.80
41557;DHT22;27720;51.992;5.890;2022-07-06T02:00:51;17.00;70.90
41557;DHT22;27720;51.992;5.890;2022-07-06T02:03:17;16.90;71.00
41557;DHT22;27720;51.992;5.890;2022-07-06T02:05:42;16.90;71.10
41557;DHT22;27720;51.992;5.890;2022-07-06T02:08:08;16.80;71.30
41557;DHT22;27720;51.992;5.890;2022-07-06T02:10:34;16.80;71.40
41557;DHT22;27720;51.992;5.890;2022-07-06T02:13:00;16.80;71.50
41557;DHT22;27720;51.992;5.890;2022-07-06T02:15:25;16.70;71.50
41557;DHT22;27720;51.992;5.890;2022-07-06T02:17:51;16.70;71.80
41557;DHT22;27720;51.992;5.890;2022-07-06T02:20:17;16.60;71.90
41557;DHT22;27720;51.992;5.890;2022-07-06T02:22:43;16.60;72.20
41557;DHT22;27720;51.992;5.890;2022-07-06T02:25:09;16.50;72.40
41557;DHT22;27720;51.992;5.890;2022-07-06T02:27:35;16.40;72.50
41557;DHT22;27720;51.992;5.890;2022-07-06T02:30:05;16.40;72.60
41557;DHT22;27720;51.992;5.890;2022-07-06T02:32:33;16.40;72.60
41557;DHT22;27720;51.992;5.890;2022-07-06T02:34:59;16.40;72.60
41557;DHT22;27720;51.992;5.890;2022-07-06T02:37:25;16.40;72.70
41557;DHT22;27720;51.992;5.890;2022-07-06T02:39:51;16.40;72.60
41557;DHT22;27720;51.992;5.890;2022-07-06T02:42:17;16.40;72.70
41557;DHT22;27720;51.992;5.890;2022-07-06T02:44:43;16.40;72.80
41557;DHT22;27720;51.992;5.890;2022-07-06T02:47:09;16.40;72.80
41557;DHT22;27720;51.992;5.890;2022-07-06T02:49:35;16.40;72.80
41557;DHT22;27720;51.992;5.890;2022-07-06T02:52:00;16.40;72.80
41557;DHT22;27720;51.992;5.890;2022-07-06T02:54:27;16.40;73.50
41557;DHT22;27720;51.992;5.890;2022-07-06T02:56:53;16.40;72.90
41557;DHT22;27720;51.992;5.890;2022-07-06T02:59:22;16.40;72.80
41557;DHT22;27720;51.992;5.890;2022-07-06T03:01:48;16.40;72.90
41557;DHT22;27720;51.992;5.890;2022-07-06T03:04:14;16.40;73.00
41557;DHT22;27720;51.992;5.890;2022-07-06T03:06:41;16.30;73.00
41557;DHT22;27720;51.992;5.890;2022-07-06T03:09:07;16.30;73.10
41557;DHT22;27720;51.992;5.890;2022-07-06T03:11:33;16.30;73.20
41557;DHT22;27720;51.992;5.890;2022-07-06T03:14:03;16.30;73.30
41557;DHT22;27720;51.992;5.890;2022-07-06T03:16:30;16.30;73.40
41557;DHT22;27720;51.992;5.890;2022-07-06T03:18:56;16.30;73.40
41557;DHT22;27720;51.992;5.890;2022-07-06T03:21:23;16.30;73.40
41557;DHT22;27720;51.992;5.890;2022-07-06T03:23:48;16.30;73.40
41557;DHT22;27720;51.992;5.890;2022-07-06T03:26:14;16.40;73.50
41557;DHT22;27720;51.992;5.890;2022-07-06T03:28:41;16.30;73.40
41557;DHT22;27720;51.992;5.890;2022-07-06T03:31:07;16.40;73.50
41557;DHT22;27720;51.992;5.890;2022-07-06T03:33:32;16.40;73.40
41557;DHT22;27720;51.992;5.890;2022-07-06T03:35:59;16.40;73.40
41557;DHT22;27720;51.992;5.890;2022-07-06T03:38:25;16.50;73.50
41557;DHT22;27720;51.992;5.890;2022-07-06T03:40:51;16.50;73.50
41557;DHT22;27720;51.992;5.890;2022-07-06T03:43:17;16.50;73.50
41557;DHT22;27720;51.992;5.890;2022-07-06T03:45:43;16.50;73.50
41557;DHT22;27720;51.992;5.890;2022-07-06T03:48:09;16.50;73.50
41557;DHT22;27720;51.992;5.890;2022-07-06T03:50:38;16.50;73.60
41557;DHT22;27720;51.992;5.890;2022-07-06T03:53:04;16.50;74.30
41557;DHT22;27720;51.992;5.890;2022-07-06T03:55:31;16.50;73.80
41557;DHT22;27720;51.992;5.890;2022-07-06T03:58:01;16.50;73.80
41557;DHT22;27720;51.992;5.890;2022-07-06T04:00:27;16.50;73.90
41557;DHT22;27720;51.992;5.890;2022-07-06T04:03:00;16.40;74.10
41557;DHT22;27720;51.992;5.890;2022-07-06T04:05:30;16.40;74.20
41557;DHT22;27720;51.992;5.890;2022-07-06T04:07:56;16.40;74.40
41557;DHT22;27720;51.992;5.890;2022-07-06T04:10:28;16.30;74.30
41557;DHT22;27720;51.992;5.890;2022-07-06T04:12:56;16.40;74.30
41557;DHT22;27720;51.992;5.890;2022-07-06T04:15:22;16.40;74.50
41557;DHT22;27720;51.992;5.890;2022-07-06T04:17:48;16.30;74.60
41557;DHT22;27720;51.992;5.890;2022-07-06T04:20:31;16.30;74.60
41557;DHT22;27720;51.992;5.890;2022-07-06T04:22:58;16.30;74.60
41557;DHT22;27720;51.992;5.890;2022-07-06T04:25:25;16.30;74.40
41557;DHT22;27720;51.992;5.890;2022-07-06T04:27:51;16.40;74.50
41557;DHT22;27720;51.992;5.890;2022-07-06T04:30:17;16.40;74.50
41557;DHT22;27720;51.992;5.890;2022-07-06T04:32:43;16.40;74.50
41557;DHT22;27720;51.992;5.890;2022-07-06T04:35:10;16.40;74.50
41557;DHT22;27720;51.992;5.890;2022-07-06T04:37:35;16.40;74.50
41557;DHT22;27720;51.992;5.890;2022-07-06T04:40:01;16.40;74.70
41557;DHT22;27720;51.992;5.890;2022-07-06T04:42:28;16.30;74.80
41557;DHT22;27720;51.992;5.890;2022-07-06T04:44:58;16.30;74.90
41557;DHT22;27720;51.992;5.890;2022-07-06T04:47:24;16.30;75.00
41557;DHT22;27720;51.992;5.890;2022-07-06T04:49:49;16.30;75.00
41557;DHT22;27720;51.992;5.890;2022-07-06T04:52:16;16.30;75.10
41557;DHT22;27720;51.992;5.890;2022-07-06T04:54:43;16.30;75.30
41557;DHT22;27720;51.992;5.890;2022-07-06T04:57:08;16.40;75.40
41557;DHT22;27720;51.992;5.890;2022-07-06T04:59:35;16.40;75.40
41557;DHT22;27720;51.992;5.890;2022-07-06T05:02:01;16.40;75.50
41557;DHT22;27720;51.992;5.890;2022-07-06T05:04:28;16.40;75.60
41557;DHT22;27720;51.992;5.890;2022-07-06T05:06:55;16.50;75.80
41557;DHT22;27720;51.992;5.890;2022-07-06T05:09:21;16.50;75.90
41557;DHT22;27720;51.992;5.890;2022-07-06T05:11:48;16.50;76.10
41557;DHT22;27720;51.992;5.890;2022-07-06T05:14:14;16.50;76.10
41557;DHT22;27720;51.992;5.890;2022-07-06T05:16:40;16.50;76.30
41557;DHT22;27720;51.992;5.890;2022-07-06T05:19:07;16.50;76.50
41557;DHT22;27720;51.992;5.890;2022-07-06T05:21:33;16.50;77.00
41557;DHT22;27720;51.992;5.890;2022-07-06T05:24:00;16.40;77.00
41557;DHT22;27720;51.992;5.890;2022-07-06T05:26:25;16.50;77.30
41557;DHT22;27720;51.992;5.890;2022-07-06T05:28:51;16.40;77.30
41557;DHT22;27720;51.992;5.890;2022-07-06T05:31:21;16.50;77.30
41557;DHT22;27720;51.992;5.890;2022-07-06T05:33:46;16.50;77.60
41557;DHT22;27720;51.992;5.890;2022-07-06T05:36:12;16.50;77.60
41557;DHT22;27720;51.992;5.890;2022-07-06T05:38:38;16.50;77.60
41557;DHT22;27720;51.992;5.890;2022-07-06T05:41:05;16.60;77.60
41557;DHT22;27720;51.992;5.890;2022-07-06T05:43:34;16.60;77.50
41557;DHT22;27720;51.992;5.890;2022-07-06T05:46:10;16.70;77.50
41557;DHT22;27720;51.992;5.890;2022-07-06T05:48:36;16.80;77.60
41557;DHT22;27720;51.992;5.890;2022-07-06T05:51:21;16.80;77.50
41557;DHT22;27720;51.992;5.890;2022-07-06T05:53:47;16.90;77.40
41557;DHT22;27720;51.992;5.890;2022-07-06T05:56:14;17.00;77.40
41557;DHT22;27720;51.992;5.890;2022-07-06T05:58:40;17.10;77.30
41557;DHT22;27720;51.992;5.890;2022-07-06T06:01:06;17.10;77.20
41557;DHT22;27720;51.992;5.890;2022-07-06T06:03:36;17.20;77.20
41557;DHT22;27720;51.992;5.890;2022-07-06T06:06:03;17.30;77.80
41557;DHT22;27720;51.992;5.890;2022-07-06T06:08:30;17.30;77.30
41557;DHT22;27720;51.992;5.890;2022-07-06T06:10:57;17.40;77.50
41557;DHT22;27720;51.992;5.890;2022-07-06T06:13:24;17.40;77.30
41557;DHT22;27720;51.992;5.890;2022-07-06T06:15:50;17.50;77.30
41557;DHT22;27720;51.992;5.890;2022-07-06T06:18:16;17.60;77.30
41557;DHT22;27720;51.992;5.890;2022-07-06T06:20:45;17.60;77.00
41557;DHT22;27720;51.992;5.890;2022-07-06T06:23:11;17.70;77.00
41557;DHT22;27720;51.992;5.890;2022-07-06T06:25:38;17.70;77.00
41557;DHT22;27720;51.992;5.890;2022-07-06T06:28:05;17.70;77.20
41557;DHT22;27720;51.992;5.890;2022-07-06T06:30:32;17.80;77.10
41557;DHT22;27720;51.992;5.890;2022-07-06T06:35:34;18.10;76.90
41557;DHT22;27720;51.992;5.890;2022-07-06T06:38:00;18.20;76.80
41557;DHT22;27720;51.992;5.890;2022-07-06T06:40:25;18.30;76.60
41557;DHT22;27720;51.992;5.890;2022-07-06T06:42:54;18.40;76.30
41557;DHT22;27720;51.992;5.890;2022-07-06T06:45:20;18.40;76.10
41557;DHT22;27720;51.992;5.890;2022-07-06T06:47:46;18.50;76.00
41557;DHT22;27720;51.992;5.890;2022-07-06T06:50:12;18.50;75.90
41557;DHT22;27720;51.992;5.890;2022-07-06T06:52:37;18.60;75.60
41557;DHT22;27720;51.992;5.890;2022-07-06T06:55:03;18.70;75.40
41557;DHT22;27720;51.992;5.890;2022-07-06T06:57:29;18.70;75.10
41557;DHT22;27720;51.992;5.890;2022-07-06T07:00:06;18.80;75.00
41557;DHT22;27720;51.992;5.890;2022-07-06T07:02:42;18.90;74.70
41557;DHT22;27720;51.992;5.890;2022-07-06T07:05:08;19.00;74.20
41557;DHT22;27720;51.992;5.890;2022-07-06T07:07:34;19.00;74.00
41557;DHT22;27720;51.992;5.890;2022-07-06T07:10:03;19.10;74.10
41557;DHT22;27720;51.992;5.890;2022-07-06T07:12:28;19.10;73.50
41557;DHT22;27720;51.992;5.890;2022-07-06T07:14:54;19.10;73.70
41557;DHT22;27720;51.992;5.890;2022-07-06T07:17:23;19.20;73.70
41557;DHT22;27720;51.992;5.890;2022-07-06T07:19:49;19.30;73.60
41557;DHT22;27720;51.992;5.890;2022-07-06T07:22:14;19.50;73.20
41557;DHT22;27720;51.992;5.890;2022-07-06T07:24:43;19.60;72.90
41557;DHT22;27720;51.992;5.890;2022-07-06T07:27:08;19.80;72.60
41557;DHT22;27720;51.992;5.890;2022-07-06T07:29:34;19.90;72.20
41557;DHT22;27720;51.992;5.890;2022-07-06T07:32:00;20.00;71.90
41557;DHT22;27720;51.992;5.890;2022-07-06T07:34:25;20.10;71.50
41557;DHT22;27720;51.992;5.890;2022-07-06T07:36:52;20.20;71.00
41557;DHT22;27720;51.992;5.890;2022-07-06T07:39:20;20.30;70.60
41557;DHT22;27720;51.992;5.890;2022-07-06T07:41:46;20.50;70.40
41557;DHT22;27720;51.992;5.890;2022-07-06T07:44:12;20.60;70.10
41557;DHT22;27720;51.992;5.890;2022-07-06T07:46:38;20.70;69.70
41557;DHT22;27720;51.992;5.890;2022-07-06T07:49:04;20.80;69.10
41557;DHT22;27720;51.992;5.890;2022-07-06T07:51:32;20.80;67.90
41557;DHT22;27720;51.992;5.890;2022-07-06T07:53:57;20.80;67.80
41557;DHT22;27720;51.992;5.890;2022-07-06T07:56:23;20.80;67.80
41557;DHT22;27720;51.992;5.890;2022-07-06T07:58:49;20.90;67.20
41557;DHT22;27720;51.992;5.890;2022-07-06T08:01:20;21.00;66.70
41557;DHT22;27720;51.992;5.890;2022-07-06T08:03:45;21.20;66.00
41557;DHT22;27720;51.992;5.890;2022-07-06T08:06:11;21.30;65.60
41557;DHT22;27720;51.992;5.890;2022-07-06T08:08:37;21.40;65.40
41557;DHT22;27720;51.992;5.890;2022-07-06T08:11:03;21.50;65.10
41557;DHT22;27720;51.992;5.890;2022-07-06T08:13:29;21.60;64.70
41557;DHT22;27720;51.992;5.890;2022-07-06T08:15:54;21.70;63.80
41557;DHT22;27720;51.992;5.890;2022-07-06T08:18:20;21.80;63.50
41557;DHT22;27720;51.992;5.890;2022-07-06T08:20:48;21.90;63.20
41557;DHT22;27720;51.992;5.890;2022-07-06T08:23:14;22.10;62.50
41557;DHT22;27720;51.992;5.890;2022-07-06T08:25:39;22.20;62.00
41557;DHT22;27720;51.992;5.890;2022-07-06T08:28:05;22.30;61.00
41557;DHT22;27720;51.992;5.890;2022-07-06T08:30:31;22.40;60.90
41557;DHT22;27720;51.992;5.890;2022-07-06T08:33:00;22.60;60.40
41557;DHT22;27720;51.992;5.890;2022-07-06T08:35:26;22.70;60.00
41557;DHT22;27720;51.992;5.890;2022-07-06T08:37:52;22.80;59.80
41557;DHT22;27720;51.992;5.890;2022-07-06T08:40:17;22.90;59.20
41557;DHT22;27720;51.992;5.890;2022-07-06T08:42:44;23.10;58.70
41557;DHT22;27720;51.992;5.890;2022-07-06T08:45:17;23.10;56.40
41557;DHT22;27720;51.992;5.890;2022-07-06T08:47:43;23.10;56.90
41557;DHT22;27720;51.992;5.890;2022-07-06T08:50:09;23.10;56.40
41557;DHT22;27720;51.992;5.890;2022-07-06T08:52:36;23.00;56.60
41557;DHT22;27720;51.992;5.890;2022-07-06T08:55:03;23.00;56.70
41557;DHT22;27720;51.992;5.890;2022-07-06T08:57:29;23.00;56.70
41557;DHT22;27720;51.992;5.890;2022-07-06T08:59:58;23.20;56.40
41557;DHT22;27720;51.992;5.890;2022-07-06T09:02:25;23.40;56.10
41557;DHT22;27720;51.992;5.890;2022-07-06T09:04:56;23.50;55.80
41557;DHT22;27720;51.992;5.890;2022-07-06T09:07:27;23.80;55.50
41557;DHT22;27720;51.992;5.890;2022-07-06T09:09:53;23.90;54.90
41557;DHT22;27720;51.992;5.890;2022-07-06T09:12:19;23.90;54.60
41557;DHT22;27720;51.992;5.890;2022-07-06T09:14:45;24.10;54.70
41557;DHT22;27720;51.992;5.890;2022-07-06T09:17:12;24.20;54.30
41557;DHT22;27720;51.992;5.890;2022-07-06T09:19:40;24.30;53.90
41557;DHT22;27720;51.992;5.890;2022-07-06T09:22:06;24.30;53.40
41557;DHT22;27720;51.992;5.890;2022-07-06T09:24:41;24.30;52.90
41557;DHT22;27720;51.992;5.890;2022-07-06T09:27:16;24.30;53.00
41557;DHT22;27720;51.992;5.890;2022-07-06T09:29:42;24.20;53.20
41557;DHT22;27720;51.992;5.890;2022-07-06T09:32:09;24.20;53.20
41557;DHT22;27720;51.992;5.890;2022-07-06T09:37:07;24.30;53.10
41557;DHT22;27720;51.992;5.890;2022-07-06T09:39:33;24.30;53.00
41557;DHT22;27720;51.992;5.890;2022-07-06T09:42:00;24.50;52.50
41557;DHT22;27720;51.992;5.890;2022-07-06T09:44:28;24.60;52.30
41557;DHT22;27720;51.992;5.890;2022-07-06T09:46:57;24.70;52.20
41557;DHT22;27720;51.992;5.890;2022-07-06T09:49:23;24.80;51.90
41557;DHT22;27720;51.992;5.890;2022-07-06T09:51:52;24.80;50.50
41557;DHT22;27720;51.992;5.890;2022-07-06T09:54:18;24.70;50.90
41557;DHT22;27720;51.992;5.890;2022-07-06T09:56:46;24.80;51.20
41557;DHT22;27720;51.992;5.890;2022-07-06T09:59:27;24.90;51.10
41557;DHT22;27720;51.992;5.890;2022-07-06T10:01:58;25.00;50.90
41557;DHT22;27720;51.992;5.890;2022-07-06T10:04:25;25.10;50.90
41557;DHT22;27720;51.992;5.890;2022-07-06T10:06:51;25.10;50.20
41557;DHT22;27720;51.992;5.890;2022-07-06T10:09:19;25.10;50.30
41557;DHT22;27720;51.992;5.890;2022-07-06T10:11:57;25.10;50.20
41557;DHT22;27720;51.992;5.890;2022-07-06T10:14:26;25.20;50.40
41557;DHT22;27720;51.992;5.890;2022-07-06T10:16:55;25.20;50.20
41557;DHT22;27720;51.992;5.890;2022-07-06T10:19:21;25.20;50.20
41557;DHT22;27720;51.992;5.890;2022-07-06T10:21:48;25.30;50.20
41557;DHT22;27720;51.992;5.890;2022-07-06T10:24:14;25.40;50.30
41557;DHT22;27720;51.992;5.890;2022-07-06T10:26:41;25.40;50.10
41557;DHT22;27720;51.992;5.890;2022-07-06T10:29:07;25.30;49.70
41557;DHT22;27720;51.992;5.890;2022-07-06T10:31:36;25.40;49.80
41557;DHT22;27720;51.992;5.890;2022-07-06T10:34:06;25.50;49.90
41557;DHT22;27720;51.992;5.890;2022-07-06T10:36:40;25.60;50.00
41557;DHT22;27720;51.992;5.890;2022-07-06T10:39:07;25.70;49.70
41557;DHT22;27720;51.992;5.890;2022-07-06T10:41:51;25.80;49.50
41557;DHT22;27720;51.992;5.890;2022-07-06T10:44:21;26.00;49.40
41557;DHT22;27720;51.992;5.890;2022-07-06T10:46:54;26.00;49.10
41557;DHT22;27720;51.992;5.890;2022-07-06T10:49:21;26.10;49.20
41557;DHT22;27720;51.992;5.890;2022-07-06T10:51:47;26.00;48.70
41557;DHT22;27720;51.992;5.890;2022-07-06T10:54:13;26.00;48.80
41557;DHT22;27720;51.992;5.890;2022-07-06T10:56:49;26.10;48.50
41557;DHT22;27720;51.992;5.890;2022-07-06T10:59:21;26.20;47.70
41557;DHT22;27720;51.992;5.890;2022-07-06T11:02:13;26.20;46.80
41557;DHT22;27720;51.992;5.890;2022-07-06T11:04:40;26.40;46.80
41557;DHT22;27720;51.992;5.890;2022-07-06T11:07:13;26.40;47.10
41557;DHT22;27720;51.992;5.890;2022-07-06T11:09:40;26.50;47.50
41557;DHT22;27720;51.992;5.890;2022-07-06T11:12:20;26.40;47.50
41557;DHT22;27720;51.992;5.890;2022-07-06T11:14:50;26.40;47.90
41557;DHT22;27720;51.992;5.890;2022-07-06T11:17:17;26.50;47.80
41557;DHT22;27720;51.992;5.890;2022-07-06T11:20:09;26.70;47.30
41557;DHT22;27720;51.992;5.890;2022-07-06T11:22:37;26.80;47.10
41557;DHT22;27720;51.992;5.890;2022-07-06T11:25:05;26.80;47.20
41557;DHT22;27720;51.992;5.890;2022-07-06T11:27:32;26.60;46.60
41557;DHT22;27720;51.992;5.890;2022-07-06T11:29:59;26.40;47.20
41557;DHT22;27720;51.992;5.890;2022-07-06T11:32:26;26.40;48.30
41557;DHT22;27720;51.992;5.890;2022-07-06T11:34:52;26.50;47.60
41557;DHT22;27720;51.992;5.890;2022-07-06T11:37:18;26.60;47.60
41557;DHT22;27720;51.992;5.890;2022-07-06T11:39:47;26.60;47.10
41557;DHT22;27720;51.992;5.890;2022-07-06T11:42:15;26.70;47.00
41557;DHT22;27720;51.992;5.890;2022-07-06T11:44:42;26.70;47.00
41557;DHT22;27720;51.992;5.890;2022-07-06T11:47:10;26.70;47.40
41557;DHT22;27720;51.992;5.890;2022-07-06T11:49:37;26.80;47.70
41557;DHT22;27720;51.992;5.890;2022-07-06T11:52:07;26.90;47.70
41557;DHT22;27720;51.992;5.890;2022-07-06T11:54:34;26.90;47.60
41557;DHT22;27720;51.992;5.890;2022-07-06T11:57:00;26.80;47.60
41557;DHT22;27720;51.992;5.890;2022-07-06T11:59:37;26.90;47.60
41557;DHT22;27720;51.992;5.890;2022-07-06T12:02:05;27.10;47.50
41557;DHT22;27720;51.992;5.890;2022-07-06T12:04:32;27.30;46.90
41557;DHT22;27720;51.992;5.890;2022-07-06T12:07:07;27.30;46.70
41557;DHT22;27720;51.992;5.890;2022-07-06T12:09:35;27.40;46.90
41557;DHT22;27720;51.992;5.890;2022-07-06T12:12:01;27.40;46.20
41557;DHT22;27720;51.992;5.890;2022-07-06T12:14:29;27.40;46.40
41557;DHT22;27720;51.992;5.890;2022-07-06T12:16:55;27.30;46.60
41557;DHT22;27720;51.992;5.890;2022-07-06T12:19:22;27.50;46.60
41557;DHT22;27720;51.992;5.890;2022-07-06T12:21:50;27.60;46.20
41557;DHT22;27720;51.992;5.890;2022-07-06T12:24:24;28.00;46.20
41557;DHT22;27720;51.992;5.890;2022-07-06T12:26:50;28.30;46.00
41557;DHT22;27720;51.992;5.890;2022-07-06T12:29:17;28.50;45.00
41557;DHT22;27720;51.992;5.890;2022-07-06T12:31:51;28.50;44.80
41557;DHT22;27720;51.992;5.890;2022-07-06T12:34:21;28.50;44.80
41557;DHT22;27720;51.992;5.890;2022-07-06T12:36:55;28.40;44.80
41557;DHT22;27720;51.992;5.890;2022-07-06T12:39:26;28.40;45.20
41557;DHT22;27720;51.992;5.890;2022-07-06T12:42:00;28.70;45.20
41557;DHT22;27720;51.992;5.890;2022-07-06T12:44:27;28.90;44.60
41557;DHT22;27720;51.992;5.890;2022-07-06T12:47:06;29.10;44.70
41557;DHT22;27720;51.992;5.890;2022-07-06T12:49:33;29.40;44.50
41557;DHT22;27720;51.992;5.890;2022-07-06T12:52:02;29.50;44.10
41557;DHT22;27720;51.992;5.890;2022-07-06T12:54:40;29.60;43.60
41557;DHT22;27720;51.992;5.890;2022-07-06T12:59:39;29.10;43.70
41557;DHT22;27720;51.992;5.890;2022-07-06T13:02:07;29.20;44.10
41557;DHT22;27720;51.992;5.890;2022-07-06T13:04:35;29.40;43.70
41557;DHT22;27720;51.992;5.890;2022-07-06T13:07:03;29.60;43.70
41557;DHT22;27720;51.992;5.890;2022-07-06T13:09:29;29.60;43.60
41557;DHT22;27720;51.992;5.890;2022-07-06T13:11:56;29.60;43.60
41557;DHT22;27720;51.992;5.890;2022-07-06T13:14:22;29.60;43.80
41557;DHT22;27720;51.992;5.890;2022-07-06T13:16:48;29.60;43.60
41557;DHT22;27720;51.992;5.890;2022-07-06T13:19:14;29.60;43.40
41557;DHT22;27720;51.992;5.890;2022-07-06T13:21:40;29.30;43.50
41557;DHT22;27720;51.992;5.890;2022-07-06T13:24:06;29.10;43.80
41557;DHT22;27720;51.992;5.890;2022-07-06T13:26:32;29.00;44.10
41557;DHT22;27720;51.992;5.890;2022-07-06T13:29:01;28.90;44.30
41557;DHT22;27720;51.992;5.890;2022-07-06T13:31:27;28.70;44.30
41557;DHT22;27720;51.992;5.890;2022-07-06T13:33:54;28.60;44.50
41557;DHT22;27720;51.992;5.890;2022-07-06T13:36:20;28.20;44.40
41557;DHT22;27720;51.992;5.890;2022-07-06T13:38:45;28.00;44.80
41557;DHT22;27720;51.992;5.890;2022-07-06T13:41:14;28.00;45.30
41557;DHT22;27720;51.992;5.890;2022-07-06T13:43:40;27.80;45.20
41557;DHT22;27720;51.992;5.890;2022-07-06T13:46:07;27.70;45.50
41557;DHT22;27720;51.992;5.890;2022-07-06T13:48:34;27.60;45.70
41557;DHT22;27720;51.992;5.890;2022-07-06T13:51:00;27.60;45.80
41557;DHT22;27720;51.992;5.890;2022-07-06T13:53:26;27.50;45.90
41557;DHT22;27720;51.992;5.890;2022-07-06T13:55:52;27.50;46.00
41557;DHT22;27720;51.992;5.890;2022-07-06T13:58:19;27.60;46.30
41557;DHT22;27720;51.992;5.890;2022-07-06T14:00:50;27.60;46.10
41557;DHT22;27720;51.992;5.890;2022-07-06T14:03:16;27.60;45.80
41557;DHT22;27720;51.992;5.890;2022-07-06T14:05:45;27.50;45.90
41557;DHT22;27720;51.992;5.890;2022-07-06T14:08:11;27.40;45.70
41557;DHT22;27720;51.992;5.890;2022-07-06T14:10:38;27.40;46.00
41557;DHT22;27720;51.992;5.890;2022-07-06T14:13:03;27.40;46.10
41557;DHT22;27720;51.992;5.890;2022-07-06T14:15:29;27.50;46.00
41557;DHT22;27720;51.992;5.890;2022-07-06T14:17:55;27.50;45.80
41557;DHT22;27720;51.992;5.890;2022-07-06T14:20:21;27.60;46.00
41557;DHT22;27720;51.992;5.890;2022-07-06T14:22:46;27.70;45.40
41557;DHT22;27720;51.992;5.890;2022-07-06T14:25:12;27.60;45.20
41557;DHT22;27720;51.992;5.890;2022-07-06T14:27:38;27.50;44.80
41557;DHT22;27720;51.992;5.890;2022-07-06T14:30:06;27.50;45.20
41557;DHT22;27720;51.992;5.890;2022-07-06T14:32:32;27.70;45.10
41557;DHT22;27720;51.992;5.890;2022-07-06T14:34:58;27.90;44.80
41557;DHT22;27720;51.992;5.890;2022-07-06T14:37:24;28.10;44.50
41557;DHT22;27720;51.992;5.890;2022-07-06T14:39:49;28.30;44.50
41557;DHT22;27720;51.992;5.890;2022-07-06T14:42:16;28.20;44.30
41557;DHT22;27720;51.992;5.890;2022-07-06T14:44:41;28.20;45.20
41557;DHT22;27720;51.992;5.890;2022-07-06T14:47:07;28.30;44.80
41557;DHT22;27720;51.992;5.890;2022-07-06T14:49:33;28.20;44.40
41557;DHT22;27720;51.992;5.890;2022-07-06T14:51:59;28.20;44.60
41557;DHT22;27720;51.992;5.890;2022-07-06T14:54:25;28.10;44.80
41557;DHT22;27720;51.992;5.890;2022-07-06T14:56:51;28.10;45.10
41557;DHT22;27720;51.992;5.890;2022-07-06T14:59:18;28.10;45.30
41557;DHT22;27720;51.992;5.890;2022-07-06T15:01:43;28.00;45.30
41557;DHT22;27720;51.992;5.890;2022-07-06T15:04:10;27.90;45.20
41557;DHT22;27720;51.992;5.890;2022-07-06T15:06:37;27.70;45.10
41557;DHT22;27720;51.992;5.890;2022-07-06T15:09:03;27.50;45.00
41557;DHT22;27720;51.992;5.890;2022-07-06T15:11:33;27.30;45.20
41557;DHT22;27720;51.992;5.890;2022-07-06T15:13:59;27.10;45.40
41557;DHT22;27720;51.992;5.890;2022-07-06T15:16:25;27.10;45.80
41557;DHT22;27720;51.992;5.890;2022-07-06T15:18:51;27.10;45.90
41557;DHT22;27720;51.992;5.890;2022-07-06T15:21:17;27.10;46.00
41557;DHT22;27720;51.992;5.890;2022-07-06T15:23:43;27.10;46.10
41557;DHT22;27720;51.992;5.890;2022-07-06T15:26:09;27.10;46.10
41557;DHT22;27720;51.992;5.890;2022-07-06T15:28:38;27.00;46.50
41557;DHT22;27720;51.992;5.890;2022-07-06T15:31:04;26.90;46.10
41557;DHT22;27720;51.992;5.890;2022-07-06T15:33:32;26.80;46.40
41557;DHT22;27720;51.992;5.890;2022-07-06T15:35:58;26.90;46.70
41557;DHT22;27720;51.992;5.890;2022-07-06T15:38:24;26.80;46.60